Time;durP1;ratioP1;P1;durP2;ratioP2;P2;SDS_P1;SDS_P2;PMS_P1;PMS_P2;Temp;Humidity;BMP_temperature;BMP_pressure;BME280_temperature;BME280_humidity;BME280_pressure;Samples;Min_cycle;Max_cycle;Signal;HPM_P1;HPM_P2
2022/04/17 00:02:03;;;;;;;4.23;3.33;;;7.70;37.00;;;;;;5075619;28;20529;-31
2022/04/17 00:04:29;;;;;;;5.78;3.85;;;7.70;36.80;;;;;;5075746;28;20548;-31
2022/04/17 00:06:54;;;;;;;5.97;4.07;;;7.60;36.70;;;;;;5076193;28;20180;-31
2022/04/17 00:09:21;;;;;;;8.27;4.90;;;7.70;36.40;;;;;;5076023;28;20180;-29
2022/04/17 00:11:46;;;;;;;3.45;2.47;;;7.60;36.70;;;;;;5075679;28;20262;-29
2022/04/17 00:14:12;;;;;;;5.60;3.60;;;7.60;37.20;;;;;;5075583;28;20690;-29
2022/04/17 00:16:40;;;;;;;4.17;3.00;;;7.50;36.80;;;;;;5075892;28;20419;-29
2022/04/17 00:19:07;;;;;;;8.38;3.25;;;7.50;36.80;;;;;;5075832;28;20182;-30
2022/04/17 00:21:33;;;;;;;5.53;3.38;;;7.50;36.80;;;;;;5075545;28;20269;-29
2022/04/17 00:23:59;;;;;;;4.87;3.30;;;7.50;36.70;;;;;;5075557;28;20342;-29
2022/04/17 00:26:26;;;;;;;5.90;4.03;;;7.50;36.40;;;;;;5075412;28;20403;-29
2022/04/17 00:28:51;;;;;;;3.38;2.78;;;7.50;36.40;;;;;;5075417;28;20174;-30
2022/04/17 00:31:17;;;;;;;4.27;3.37;;;7.50;36.50;;;;;;5075355;28;20283;-29
2022/04/17 00:33:43;;;;;;;5.07;3.60;;;7.50;36.50;;;;;;5075171;28;20284;-30
2022/04/17 00:36:08;;;;;;;3.43;3.13;;;7.40;36.50;;;;;;5075342;28;20165;-29
2022/04/17 00:38:34;;;;;;;5.30;3.47;;;7.40;36.30;;;;;;5057452;28;20714;-30
2022/04/17 00:41:00;;;;;;;4.77;3.57;;;7.40;36.50;;;;;;5074798;28;20267;-30
2022/04/17 00:43:32;;;;;;;3.33;2.70;;;7.40;36.30;;;;;;5075358;28;20172;-29
2022/04/17 00:45:59;;;;;;;3.33;2.40;;;7.40;37.00;;;;;;5075307;28;20594;-30
2022/04/17 00:48:25;;;;;;;7.25;5.38;;;7.40;36.30;;;;;;5075224;28;20577;-29
2022/04/17 00:50:55;;;;;;;4.55;3.00;;;7.30;36.80;;;;;;5074625;28;20229;-30
2022/04/17 00:53:22;;;;;;;6.22;3.60;;;7.30;37.10;;;;;;5073724;28;20708;-29
2022/04/17 00:55:49;;;;;;;4.97;3.33;;;7.20;37.20;;;;;;5074471;28;20181;-29
2022/04/17 00:58:15;;;;;;;4.00;2.67;;;7.20;36.80;;;;;;5074715;28;20185;-29
2022/04/17 01:00:41;;;;;;;3.22;2.45;;;7.10;37.30;;;;;;5074906;28;20188;-29
2022/04/17 01:03:10;;;;;;;6.60;3.88;;;7.10;37.20;;;;;;5074990;28;20183;-30
2022/04/17 01:05:38;;;;;;;7.55;3.83;;;7.00;37.20;;;;;;5074481;28;20208;-28
2022/04/17 01:08:04;;;;;;;3.30;3.00;;;7.00;36.70;;;;;;5075435;28;20187;-31
2022/04/17 01:10:31;;;;;;;6.57;2.92;;;7.00;36.80;;;;;;5075781;28;20172;-30
2022/04/17 01:12:58;;;;;;;4.50;3.13;;;6.90;36.90;;;;;;5075603;28;20173;-31
2022/04/17 01:15:24;;;;;;;4.97;3.42;;;6.90;36.70;;;;;;5074534;28;20230;-30
2022/04/17 01:17:50;;;;;;;8.10;3.23;;;6.90;37.30;;;;;;5074732;28;20275;-30
2022/04/17 01:20:17;;;;;;;5.30;3.70;;;6.80;37.20;;;;;;5074627;28;20180;-30
2022/04/17 01:22:50;;;;;;;7.93;2.97;;;6.80;37.30;;;;;;5074415;28;20192;-30
2022/04/17 01:28:02;;;;;;;4.20;3.80;;;6.80;37.30;;;;;;5074757;28;20641;-31
2022/04/17 01:30:27;;;;;;;4.35;2.33;;;6.70;37.40;;;;;;5055969;28;20208;-31
2022/04/17 01:32:53;;;;;;;3.60;2.90;;;6.70;37.20;;;;;;5074497;28;20200;-31
2022/04/17 01:35:19;;;;;;;5.75;3.13;;;6.60;37.00;;;;;;5073997;28;20214;-31
2022/04/17 01:37:49;;;;;;;4.03;2.87;;;6.70;37.10;;;;;;5074287;28;20177;-31
2022/04/17 01:40:15;;;;;;;4.38;2.47;;;6.60;37.10;;;;;;5074258;28;20399;-30
2022/04/17 01:42:41;;;;;;;3.13;2.67;;;6.60;37.20;;;;;;5073859;28;20180;-31
2022/04/17 01:45:07;;;;;;;4.60;3.40;;;6.60;37.10;;;;;;5073834;28;20209;-30
2022/04/17 01:47:33;;;;;;;5.20;2.58;;;6.60;37.00;;;;;;5073937;28;20196;-30
2022/04/17 01:49:59;;;;;;;5.90;3.97;;;6.60;37.50;;;;;;5074121;28;20586;-31
2022/04/17 01:52:25;;;;;;;6.90;3.80;;;6.50;37.40;;;;;;5073941;28;20504;-29
2022/04/17 01:54:51;;;;;;;4.43;2.38;;;6.40;37.10;;;;;;5073717;28;20207;-30
2022/04/17 01:57:17;;;;;;;6.33;3.60;;;6.40;37.10;;;;;;5074039;28;20169;-29
2022/04/17 01:59:43;;;;;;;4.90;3.27;;;6.40;37.20;;;;;;5073624;28;20177;-30
2022/04/17 02:02:08;;;;;;;4.53;3.20;;;6.40;37.10;;;;;;5073640;28;20173;-29
2022/04/17 02:04:36;;;;;;;4.50;2.50;;;6.40;37.20;;;;;;5073379;28;20463;-30
2022/04/17 02:07:05;;;;;;;5.05;3.70;;;6.40;37.40;;;;;;5073530;28;20169;-29
2022/04/17 02:09:31;;;;;;;5.68;3.05;;;6.40;37.20;;;;;;5073453;28;20267;-29
2022/04/17 02:11:57;;;;;;;6.97;3.60;;;6.30;37.40;;;;;;5073229;28;20191;-28
2022/04/17 02:14:22;;;;;;;4.43;2.63;;;6.30;37.70;;;;;;5073314;28;20196;-30
2022/04/17 02:16:48;;;;;;;3.40;3.07;;;6.20;37.90;;;;;;5073589;28;20599;-30
2022/04/17 02:19:14;;;;;;;4.80;2.23;;;6.10;37.90;;;;;;5072777;28;20177;-29
2022/04/17 02:21:40;;;;;;;3.50;2.73;;;6.10;37.80;;;;;;5073199;28;20190;-29
2022/04/17 02:24:06;;;;;;;4.50;2.40;;;6.10;37.90;;;;;;5073216;28;20208;-29
2022/04/17 02:26:32;;;;;;;4.70;2.38;;;6.00;37.90;;;;;;5073345;28;20407;-30
2022/04/17 02:28:59;;;;;;;3.25;2.72;;;6.10;37.50;;;;;;5073314;28;20192;-30
2022/04/17 02:31:25;;;;;;;2.70;1.88;;;6.10;37.40;;;;;;5073101;28;20256;-30
2022/04/17 02:33:51;;;;;;;2.95;2.17;;;6.10;38.00;;;;;;5072716;28;20677;-28
2022/04/17 02:36:18;;;;;;;4.73;2.03;;;6.00;37.90;;;;;;5072906;28;20219;-28
2022/04/17 02:38:43;;;;;;;5.63;3.20;;;5.90;38.10;;;;;;5073141;28;20433;-28
2022/04/17 02:41:09;;;;;;;5.10;2.80;;;5.90;38.10;;;;;;5072799;28;20661;-31
2022/04/17 02:43:34;;;;;;;3.47;2.63;;;6.00;37.90;;;;;;5072657;28;20177;-30
2022/04/17 02:46:00;;;;;;;2.90;2.37;;;6.00;38.10;;;;;;5072662;28;20203;-29
2022/04/17 02:48:26;;;;;;;2.23;1.60;;;6.00;38.10;;;;;;5072751;28;20248;-28
2022/04/17 02:50:52;;;;;;;4.25;3.10;;;5.90;38.40;;;;;;5072450;28;20251;-30
2022/04/17 02:53:18;;;;;;;3.40;2.50;;;5.80;38.50;;;;;;5072548;28;20256;-30
2022/04/17 02:55:44;;;;;;;5.38;3.53;;;5.70;38.40;;;;;;5072795;28;20183;-30
2022/04/17 02:58:10;;;;;;;2.85;2.42;;;5.70;38.10;;;;;;5072685;28;20580;-30
2022/04/17 03:05:36;;;;;;;5.70;3.67;;;5.80;38.10;;;;;;5072520;28;20180;-29
2022/04/17 03:06:10;;;;;;;4.10;3.70;;;5.80;38.10;;;;;;5072611;28;20194;-30
2022/04/17 03:08:41;;;;;;;5.30;2.90;;;5.80;37.90;;;;;;5072587;28;20184;-31
2022/04/17 03:11:07;;;;;;;6.00;3.45;;;5.80;37.80;;;;;;5072221;28;20172;-31
2022/04/17 03:13:33;;;;;;;4.82;3.03;;;5.80;38.00;;;;;;5072419;28;20199;-31
2022/04/17 03:15:59;;;;;;;3.73;3.27;;;5.80;38.50;;;;;;5072398;28;20539;-30
2022/04/17 03:18:25;;;;;;;6.93;3.00;;;5.80;37.80;;;;;;5072214;28;20399;-31
2022/04/17 03:20:51;;;;;;;5.37;3.20;;;5.90;38.20;;;;;;5072302;28;20411;-30
2022/04/17 03:23:19;;;;;;;3.03;2.50;;;5.90;38.40;;;;;;5072120;28;20180;-31
2022/04/17 03:25:44;;;;;;;4.90;2.42;;;5.90;38.50;;;;;;5072193;28;20219;-31
2022/04/17 03:28:10;;;;;;;3.87;2.10;;;5.80;38.30;;;;;;5072328;28;20180;-28
2022/04/17 03:30:36;;;;;;;3.50;2.73;;;5.80;38.30;;;;;;5071080;28;20256;-31
2022/04/17 03:33:02;;;;;;;5.37;3.43;;;5.80;38.20;;;;;;5072296;28;20222;-31
2022/04/17 03:35:30;;;;;;;5.65;3.25;;;5.80;38.10;;;;;;5071829;28;20208;-31
2022/04/17 03:37:57;;;;;;;3.95;2.95;;;5.80;38.60;;;;;;5072137;28;20187;-30
2022/04/17 03:40:23;;;;;;;7.07;3.25;;;5.80;38.50;;;;;;5072040;28;20222;-31
2022/04/17 03:42:49;;;;;;;7.03;3.40;;;5.80;38.50;;;;;;5072116;28;20176;-31
2022/04/17 03:45:16;;;;;;;7.45;2.97;;;5.80;38.40;;;;;;5072070;28;20462;-30
2022/04/17 03:47:43;;;;;;;5.22;3.00;;;5.70;38.80;;;;;;5072197;28;20180;-31
2022/04/17 03:50:09;;;;;;;4.40;3.25;;;5.70;38.60;;;;;;5071819;28;20218;-30
2022/04/17 03:52:43;;;;;;;3.85;3.40;;;5.70;38.20;;;;;;5071891;28;20569;-28
2022/04/17 03:55:09;;;;;;;5.25;3.13;;;5.70;38.10;;;;;;5071934;28;20204;-31
2022/04/17 03:57:35;;;;;;;5.30;3.20;;;5.70;38.10;;;;;;5071812;28;20251;-29
2022/04/17 04:00:02;;;;;;;3.53;2.20;;;5.70;37.90;;;;;;5071719;28;20259;-30
2022/04/17 04:02:29;;;;;;;8.02;3.88;;;5.70;37.70;;;;;;5071535;28;20602;-29
2022/04/17 04:04:55;;;;;;;3.38;2.58;;;5.70;38.70;;;;;;5071786;28;20214;-29
2022/04/17 04:07:21;;;;;;;4.70;2.75;;;5.70;38.00;;;;;;5071798;28;20203;-30
2022/04/17 04:09:46;;;;;;;8.80;3.63;;;5.70;38.10;;;;;;5071785;28;20199;-29
2022/04/17 04:12:12;;;;;;;8.00;3.37;;;5.70;38.10;;;;;;5071440;28;20176;-28
2022/04/17 04:14:38;;;;;;;2.80;2.13;;;5.70;38.30;;;;;;5071449;28;20200;-29
2022/04/17 04:17:04;;;;;;;4.40;2.92;;;5.60;38.30;;;;;;5071477;28;20238;-29
2022/04/17 04:19:30;;;;;;;2.33;2.00;;;5.60;38.20;;;;;;5071861;28;20192;-28
2022/04/17 04:21:56;;;;;;;7.60;3.47;;;5.60;38.10;;;;;;5071672;28;20407;-29
2022/04/17 04:24:23;;;;;;;4.57;3.60;;;5.60;38.00;;;;;;5071754;28;20215;-31
2022/04/17 04:29:38;;;;;;;3.30;2.40;;;5.60;38.30;;;;;;5071441;28;20855;-30
2022/04/17 04:32:05;;;;;;;5.88;3.25;;;5.60;38.30;;;;;;5071555;28;20169;-29
2022/04/17 04:34:30;;;;;;;4.20;2.63;;;5.60;38.20;;;;;;5071311;28;20211;-29
2022/04/17 04:36:56;;;;;;;4.53;2.83;;;5.70;38.10;;;;;;5071531;28;20176;-29
2022/04/17 04:39:22;;;;;;;6.13;2.80;;;5.70;38.30;;;;;;5071687;28;20407;-29
2022/04/17 04:41:48;;;;;;;9.50;3.00;;;5.70;38.30;;;;;;5071607;28;20558;-29
2022/04/17 04:44:13;;;;;;;7.00;3.17;;;5.70;38.10;;;;;;5075148;28;20968;-30
2022/04/17 04:46:39;;;;;;;4.93;3.60;;;5.70;38.10;;;;;;5075330;28;20395;-29
2022/04/17 04:51:49;;;;;;;6.38;2.60;;;5.80;38.10;;;;;;5075110;28;20156;-29
2022/04/17 04:54:15;;;;;;;3.67;2.75;;;5.90;38.30;;;;;;5075136;28;20215;-29
2022/04/17 04:56:41;;;;;;;3.90;2.40;;;5.90;38.30;;;;;;5074825;28;20173;-30
2022/04/17 04:59:07;;;;;;;9.10;4.07;;;5.90;38.70;;;;;;5075089;28;20407;-29
2022/04/17 05:01:32;;;;;;;6.10;2.67;;;5.90;38.60;;;;;;5074853;28;20399;-29
2022/04/17 05:03:58;;;;;;;7.10;3.67;;;6.00;38.60;;;;;;5074527;28;20284;-31
2022/04/17 05:06:24;;;;;;;4.27;2.50;;;6.00;38.50;;;;;;5074926;28;20219;-28
2022/04/17 05:08:49;;;;;;;2.57;2.33;;;6.10;38.30;;;;;;5074768;28;20214;-29
2022/04/17 05:11:15;;;;;;;5.67;3.50;;;6.20;38.40;;;;;;5074252;28;20172;-29
2022/04/17 05:13:41;;;;;;;6.33;3.87;;;6.20;38.40;;;;;;5074483;28;20272;-30
2022/04/17 05:16:07;;;;;;;5.07;2.55;;;6.30;38.20;;;;;;5074759;28;20184;-30
2022/04/17 05:18:33;;;;;;;3.95;2.92;;;6.40;38.20;;;;;;5074520;28;20168;-30
2022/04/17 05:20:59;;;;;;;4.90;3.20;;;6.50;38.60;;;;;;5074290;28;20558;-30
2022/04/17 05:23:30;;;;;;;5.27;3.30;;;6.60;38.50;;;;;;5074346;28;20169;-30
2022/04/17 05:25:58;;;;;;;5.82;4.35;;;6.60;38.40;;;;;;5074176;28;20592;-30
2022/04/17 05:28:24;;;;;;;4.07;3.42;;;6.80;38.30;;;;;;5074299;28;20223;-30
2022/04/17 05:30:50;;;;;;;7.10;3.35;;;6.90;38.00;;;;;;5074003;28;20176;-30
2022/04/17 05:33:20;;;;;;;5.47;4.13;;;7.10;37.90;;;;;;5074420;28;20188;-28
2022/04/17 05:35:50;;;;;;;5.03;3.55;;;7.20;37.60;;;;;;5074361;28;20216;-29
2022/04/17 05:38:16;;;;;;;4.45;2.65;;;7.40;37.40;;;;;;5074023;28;20184;-28
2022/04/17 05:40:50;;;;;;;4.53;3.87;;;7.50;37.10;;;;;;5073757;28;20176;-29
2022/04/17 05:43:17;;;;;;;6.93;4.20;;;7.60;36.80;;;;;;5073999;28;20448;-29
2022/04/17 05:45:43;;;;;;;8.80;4.43;;;7.70;36.80;;;;;;5074071;28;20608;-29
2022/04/17 05:48:09;;;;;;;5.40;3.65;;;7.80;36.40;;;;;;5073966;28;20176;-29
2022/04/17 05:50:36;;;;;;;5.82;4.07;;;8.00;36.40;;;;;;5054211;28;20208;-29
2022/04/17 05:53:02;;;;;;;4.45;3.75;;;8.00;36.40;;;;;;5073517;28;20192;-29
2022/04/17 05:55:28;;;;;;;4.43;3.17;;;8.10;36.30;;;;;;5072986;28;20655;-30
2022/04/17 05:57:54;;;;;;;8.15;4.15;;;8.20;36.20;;;;;;5073745;28;20780;-30
2022/04/17 06:00:21;;;;;;;7.90;3.50;;;8.30;36.00;;;;;;5073518;28;20186;-30
2022/04/17 06:02:47;;;;;;;7.47;4.30;;;8.40;35.90;;;;;;5073802;28;20493;-29
2022/04/17 06:05:14;;;;;;;5.05;3.35;;;8.50;35.70;;;;;;5073325;28;20212;-29
2022/04/17 06:07:41;;;;;;;6.32;4.50;;;8.60;35.60;;;;;;5073446;28;20183;-29
2022/04/17 06:10:09;;;;;;;14.23;6.07;;;8.70;35.60;;;;;;5073635;28;20170;-28
2022/04/17 06:12:36;;;;;;;5.32;3.63;;;8.80;35.20;;;;;;5073532;28;20173;-29
2022/04/17 06:15:03;;;;;;;12.25;4.82;;;8.90;35.40;;;;;;5073383;28;20275;-28
2022/04/17 06:17:36;;;;;;;5.47;3.05;;;9.00;35.00;;;;;;5073337;28;20257;-28
2022/04/17 06:20:06;;;;;;;5.50;4.15;;;9.00;35.10;;;;;;5073223;28;20181;-30
2022/04/17 06:22:36;;;;;;;3.80;3.17;;;9.10;35.30;;;;;;5073316;28;20202;-31
2022/04/17 06:25:04;;;;;;;8.15;3.80;;;9.20;35.20;;;;;;5073259;28;20208;-30
2022/04/17 06:27:40;;;;;;;6.40;4.00;;;9.40;35.10;;;;;;5073162;28;20538;-30
2022/04/17 06:30:11;;;;;;;4.78;3.38;;;9.40;34.90;;;;;;5073106;28;20318;-29
2022/04/17 06:32:38;;;;;;;7.40;5.60;;;9.50;35.00;;;;;;5072874;28;20164;-29
2022/04/17 06:35:05;;;;;;;10.15;5.07;;;9.70;34.90;;;;;;5072510;28;20554;-30
2022/04/17 06:37:31;;;;;;;5.45;3.88;;;9.80;34.70;;;;;;5072849;28;20221;-31
2022/04/17 06:39:57;;;;;;;5.30;4.00;;;9.80;34.40;;;;;;5073105;28;20174;-30
2022/04/17 06:42:23;;;;;;;9.93;4.95;;;9.90;34.30;;;;;;5072659;28;20228;-28
2022/04/17 06:44:49;;;;;;;6.80;4.57;;;10.00;34.30;;;;;;5072633;28;20717;-30
2022/04/17 06:47:14;;;;;;;7.00;4.47;;;10.00;33.10;;;;;;5072675;28;20531;-29
2022/04/17 06:49:40;;;;;;;6.20;4.40;;;9.90;33.10;;;;;;5072925;28;20252;-30
2022/04/17 06:52:06;;;;;;;9.03;4.53;;;10.00;33.40;;;;;;5072837;28;20531;-31
2022/04/17 06:54:32;;;;;;;6.40;4.73;;;10.10;33.20;;;;;;5072464;28;20335;-31
2022/04/17 06:56:58;;;;;;;7.50;4.78;;;10.20;33.80;;;;;;5072821;28;20439;-31
2022/04/17 06:59:23;;;;;;;9.33;4.00;;;10.20;32.90;;;;;;5072587;28;20273;-32
2022/04/17 07:01:49;;;;;;;5.63;4.20;;;10.40;32.90;;;;;;5071663;28;20173;-31
2022/04/17 07:04:15;;;;;;;4.30;3.40;;;10.50;33.20;;;;;;5072440;28;20212;-31
2022/04/17 07:06:41;;;;;;;7.18;4.30;;;10.60;32.70;;;;;;5072412;28;20175;-30
2022/04/17 07:09:07;;;;;;;7.32;5.15;;;10.70;32.80;;;;;;5072564;28;20237;-32
2022/04/17 07:11:33;;;;;;;5.87;5.37;;;10.90;33.10;;;;;;5072520;28;20168;-30
2022/04/17 07:13:58;;;;;;;4.70;3.83;;;11.00;33.40;;;;;;5072315;28;20192;-29
2022/04/17 07:16:24;;;;;;;8.47;4.67;;;11.20;32.60;;;;;;5072759;28;20259;-29
2022/04/17 07:18:50;;;;;;;7.67;4.53;;;11.40;32.70;;;;;;5072144;28;20203;-29
2022/04/17 07:21:16;;;;;;;5.33;4.40;;;11.60;32.60;;;;;;5072101;28;20169;-30
2022/04/17 07:23:43;;;;;;;6.30;4.60;;;11.70;31.40;;;;;;5072084;28;20958;-30
2022/04/17 07:26:09;;;;;;;6.68;4.38;;;11.70;30.60;;;;;;5072366;28;20199;-31
2022/04/17 07:28:37;;;;;;;4.37;3.97;;;11.70;30.60;;;;;;5073120;28;20188;-31
2022/04/17 07:31:03;;;;;;;5.25;4.28;;;11.80;31.10;;;;;;5072997;28;20188;-31
2022/04/17 07:33:28;;;;;;;6.27;4.77;;;11.90;30.40;;;;;;5072043;28;20264;-31
2022/04/17 07:35:54;;;;;;;5.23;4.40;;;11.90;30.10;;;;;;5072151;28;20267;-31
2022/04/17 07:38:20;;;;;;;7.23;4.80;;;11.90;29.30;;;;;;5071921;28;20172;-31
2022/04/17 07:40:46;;;;;;;8.33;5.07;;;12.00;30.00;;;;;;5071799;28;20403;-30
2022/04/17 07:43:12;;;;;;;6.70;4.32;;;12.10;30.20;;;;;;5071893;28;20692;-31
2022/04/17 07:45:37;;;;;;;4.80;3.87;;;12.30;29.00;;;;;;5072011;28;20216;-31
2022/04/17 07:48:03;;;;;;;5.47;3.93;;;12.30;29.10;;;;;;5072128;28;20310;-31
2022/04/17 07:50:31;;;;;;;5.30;3.45;;;12.40;28.60;;;;;;5071883;28;20187;-30
2022/04/17 07:52:58;;;;;;;6.78;4.18;;;12.60;29.20;;;;;;5071992;28;20173;-30
2022/04/17 07:55:24;;;;;;;6.53;3.83;;;12.80;29.80;;;;;;5071807;28;20189;-31
2022/04/17 07:57:56;;;;;;;5.60;3.97;;;13.00;29.00;;;;;;5071682;28;20569;-29
2022/04/17 08:00:24;;;;;;;5.95;4.45;;;13.20;28.50;;;;;;5072015;28;20161;-31
2022/04/17 08:02:55;;;;;;;7.35;4.95;;;13.30;28.00;;;;;;5071615;28;20172;-31
2022/04/17 08:05:24;;;;;;;5.78;4.97;;;13.50;28.00;;;;;;5071752;28;20209;-30
2022/04/17 08:07:51;;;;;;;5.55;2.80;;;13.60;27.90;;;;;;5071682;28;20208;-30
2022/04/17 08:10:17;;;;;;;4.03;3.60;;;13.80;28.30;;;;;;5071568;28;20169;-31
2022/04/17 08:12:44;;;;;;;11.13;4.28;;;14.00;27.40;;;;;;5072031;28;20183;-31
2022/04/17 08:15:10;;;;;;;5.28;4.38;;;14.20;27.10;;;;;;5071561;28;20203;-31
2022/04/17 08:17:36;;;;;;;5.00;3.03;;;14.30;27.00;;;;;;5073299;28;20173;-31
2022/04/17 08:20:01;;;;;;;3.77;3.13;;;14.40;26.70;;;;;;5075588;28;20226;-32
2022/04/17 08:22:27;;;;;;;5.17;3.10;;;14.50;26.00;;;;;;5075977;28;20181;-31
2022/04/17 08:24:53;;;;;;;5.30;3.67;;;14.70;27.00;;;;;;5075257;28;20454;-31
2022/04/17 08:27:18;;;;;;;7.10;4.50;;;14.90;26.40;;;;;;5075675;28;20208;-30
2022/04/17 08:29:44;;;;;;;7.23;2.87;;;15.00;26.80;;;;;;5075577;28;20650;-31
2022/04/17 08:32:10;;;;;;;6.03;3.07;;;15.10;26.40;;;;;;5075290;28;20172;-32
2022/04/17 08:34:35;;;;;;;5.60;3.70;;;15.20;26.70;;;;;;5075185;28;20235;-31
2022/04/17 08:37:01;;;;;;;6.97;2.80;;;15.60;27.20;;;;;;5075292;28;20230;-31
2022/04/17 08:39:27;;;;;;;4.03;1.93;;;15.80;26.60;;;;;;5075123;28;20259;-31
2022/04/17 08:41:54;;;;;;;2.60;1.70;;;16.00;26.50;;;;;;5074936;28;20307;-32
2022/04/17 08:44:22;;;;;;;4.18;2.03;;;16.20;25.60;;;;;;5075146;28;20593;-31
2022/04/17 08:46:48;;;;;;;3.58;2.13;;;16.40;23.20;;;;;;5075167;28;20275;-31
2022/04/17 08:49:14;;;;;;;4.33;2.47;;;16.50;23.50;;;;;;5075170;28;20310;-31
2022/04/17 08:51:40;;;;;;;4.07;2.55;;;16.60;23.70;;;;;;5074819;28;20976;-32
2022/04/17 08:54:07;;;;;;;7.03;4.22;;;16.70;22.60;;;;;;5074769;28;20201;-31
2022/04/17 08:56:35;;;;;;;2.50;2.20;;;16.80;22.80;;;;;;5075042;28;20183;-30
2022/04/17 08:59:01;;;;;;;4.15;2.20;;;16.90;23.60;;;;;;5074573;28;20204;-30
2022/04/17 09:01:27;;;;;;;7.10;2.30;;;17.00;24.30;;;;;;5074553;28;20634;-30
2022/04/17 09:03:53;;;;;;;2.75;1.73;;;17.00;24.60;;;;;;5074547;28;20192;-31
2022/04/17 09:06:20;;;;;;;3.67;2.83;;;17.10;24.90;;;;;;5074706;28;20261;-31
2022/04/17 09:09:03;;;;;;;7.97;4.40;;;17.20;24.00;;;;;;5074821;28;20176;-30
2022/04/17 09:11:31;;;;;;;5.57;1.92;;;17.30;24.80;;;;;;5074746;28;20177;-29
2022/04/17 09:14:02;;;;;;;2.97;2.05;;;17.40;24.80;;;;;;5074775;28;20585;-31
2022/04/17 09:16:38;;;;;;;3.13;1.80;;;17.60;24.30;;;;;;5074539;28;20176;-30
2022/04/17 09:19:16;;;;;;;5.60;2.72;;;17.70;24.00;;;;;;5074680;28;20164;-30
2022/04/17 09:21:42;;;;;;;3.80;2.15;;;17.80;24.40;;;;;;5074170;28;20580;-30
2022/04/17 09:24:21;;;;;;;5.30;3.20;;;17.90;24.50;;;;;;5074474;28;20188;-30
2022/04/17 09:26:57;;;;;;;2.00;1.38;;;18.00;23.00;;;;;;5074586;28;20191;-30
2022/04/17 09:29:32;;;;;;;4.90;2.78;;;17.90;22.30;;;;;;5072918;28;20204;-31
2022/04/17 09:32:02;;;;;;;4.75;2.67;;;17.90;22.90;;;;;;5074231;28;20251;-32
2022/04/17 09:34:50;;;;;;;2.63;1.63;;;18.00;23.20;;;;;;5074082;28;20218;-30
2022/04/17 09:37:24;;;;;;;2.50;1.50;;;18.00;23.10;;;;;;5073773;28;20246;-30
2022/04/17 09:39:52;;;;;;;3.05;1.83;;;18.10;22.60;;;;;;5074280;28;20589;-31
2022/04/17 09:42:25;;;;;;;2.10;1.20;;;18.10;21.80;;;;;;5073788;28;20707;-30
2022/04/17 09:44:54;;;;;;;2.63;1.60;;;18.00;22.50;;;;;;5074017;28;20576;-30
2022/04/17 09:47:21;;;;;;;3.13;1.52;;;18.00;21.80;;;;;;5074100;28;20365;-30
2022/04/17 09:50:03;;;;;;;2.72;1.80;;;17.90;22.40;;;;;;5073727;28;20665;-31
2022/04/17 09:52:33;;;;;;;2.40;1.08;;;17.90;22.50;;;;;;5074028;28;20222;-30
2022/04/17 09:55:00;;;;;;;2.42;1.50;;;17.80;23.10;;;;;;5074105;28;20261;-31
2022/04/17 09:57:29;;;;;;;4.00;2.17;;;17.80;23.00;;;;;;5073702;28;20628;-31
2022/04/17 10:00:05;;;;;;;1.85;1.35;;;17.90;22.70;;;;;;5074173;28;20184;-30
2022/04/17 10:02:31;;;;;;;3.03;1.13;;;18.10;23.10;;;;;;5074181;28;20167;-31
2022/04/17 10:04:59;;;;;;;2.50;1.40;;;18.20;22.90;;;;;;5073915;28;20196;-31
2022/04/17 10:07:25;;;;;;;3.00;1.70;;;18.50;23.00;;;;;;5073846;28;20454;-30
2022/04/17 10:09:51;;;;;;;2.13;1.15;;;18.70;23.40;;;;;;5073803;28;20172;-31
2022/04/17 10:12:19;;;;;;;4.60;2.20;;;19.10;22.70;;;;;;5073702;28;20172;-31
2022/04/17 10:14:50;;;;;;;2.38;1.20;;;19.30;23.40;;;;;;5073850;28;20256;-30
2022/04/17 10:17:20;;;;;;;2.20;1.08;;;19.60;22.80;;;;;;5073887;28;20185;-31
2022/04/17 10:19:48;;;;;;;2.00;1.60;;;19.80;23.10;;;;;;5073266;28;20183;-32
2022/04/17 10:22:18;;;;;;;2.60;1.70;;;20.10;21.70;;;;;;5073281;28;20203;-32
2022/04/17 10:24:51;;;;;;;2.45;1.80;;;20.20;22.70;;;;;;5073248;28;20204;-31
2022/04/17 10:27:21;;;;;;;3.42;1.70;;;20.40;22.10;;;;;;5073602;28;20168;-32
2022/04/17 10:29:52;;;;;;;2.50;1.60;;;20.50;22.10;;;;;;5073231;28;20172;-32
2022/04/17 10:32:33;;;;;;;2.97;2.05;;;20.60;21.80;;;;;;5072422;28;20256;-31
2022/04/17 10:35:04;;;;;;;3.22;1.80;;;20.80;21.90;;;;;;5072950;28;20226;-31
2022/04/17 10:38:07;;;;;;;3.90;1.40;;;20.90;21.00;;;;;;5073368;28;20240;-31
2022/04/17 10:40:33;;;;;;;2.67;1.55;;;20.90;20.50;;;;;;5054257;28;20187;-31
2022/04/17 10:43:03;;;;;;;2.33;1.40;;;20.90;21.00;;;;;;5073081;28;20176;-31
2022/04/17 10:45:32;;;;;;;1.85;1.33;;;21.10;21.20;;;;;;5073856;28;20537;-32
2022/04/17 10:48:27;;;;;;;2.58;1.20;;;21.10;20.90;;;;;;5074872;28;20481;-32
2022/04/17 10:50:53;;;;;;;2.70;1.25;;;21.30;19.70;;;;;;5074128;28;20205;-31
2022/04/17 10:53:24;;;;;;;1.90;1.27;;;21.30;18.60;;;;;;5072744;28;20271;-31
2022/04/17 10:56:05;;;;;;;3.45;1.42;;;21.20;20.00;;;;;;5072958;28;20430;-31
2022/04/17 10:58:49;;;;;;;2.50;0.95;;;21.30;19.90;;;;;;5072499;28;20238;-32
2022/04/17 11:01:15;;;;;;;2.35;1.48;;;21.40;19.90;;;;;;5072699;28;20185;-31
2022/04/17 11:03:54;;;;;;;2.50;1.25;;;21.50;19.30;;;;;;5072802;28;20197;-31
2022/04/17 11:06:30;;;;;;;2.25;1.38;;;21.40;17.50;;;;;;5072823;28;20261;-30
2022/04/17 11:09:04;;;;;;;2.40;1.40;;;21.30;19.30;;;;;;5072443;28;20157;-32
2022/04/17 11:11:45;;;;;;;4.82;1.90;;;21.10;18.90;;;;;;5071925;28;20225;-31
2022/04/17 11:14:22;;;;;;;3.00;1.08;;;21.10;19.10;;;;;;5072503;28;20561;-31
2022/04/17 11:16:50;;;;;;;3.75;2.08;;;21.20;19.00;;;;;;5072580;28;20172;-31
2022/04/17 11:19:18;;;;;;;2.45;1.58;;;21.30;19.80;;;;;;5072377;28;20259;-31
2022/04/17 11:21:47;;;;;;;5.55;1.35;;;21.50;20.10;;;;;;5072020;28;20180;-31
2022/04/17 11:24:13;;;;;;;4.20;1.15;;;21.70;20.20;;;;;;5071950;28;20665;-31
2022/04/17 11:26:54;;;;;;;2.08;1.42;;;21.70;19.60;;;;;;5072297;28;20168;-31
2022/04/17 11:29:37;;;;;;;2.50;1.70;;;21.70;19.00;;;;;;5072337;28;20669;-31
2022/04/17 11:32:25;;;;;;;3.35;1.73;;;21.50;17.30;;;;;;5071878;28;20641;-31
2022/04/17 11:34:54;;;;;;;3.70;1.30;;;21.30;19.40;;;;;;5071927;28;20242;-30
2022/04/17 11:37:24;;;;;;;1.50;0.85;;;21.40;19.60;;;;;;5072290;28;20168;-31
2022/04/17 11:39:51;;;;;;;2.13;1.27;;;21.70;19.30;;;;;;5072119;28;20192;-31
2022/04/17 11:42:18;;;;;;;2.25;1.10;;;22.00;19.50;;;;;;5072153;28;20172;-32
2022/04/17 11:44:46;;;;;;;5.10;1.38;;;22.30;18.90;;;;;;5072231;28;20246;-30
2022/04/17 11:47:19;;;;;;;2.33;0.82;;;22.60;18.70;;;;;;5072096;28;20193;-32
2022/04/17 11:49:47;;;;;;;2.90;1.20;;;22.80;19.00;;;;;;5072119;28;20269;-30
2022/04/17 11:52:14;;;;;;;2.90;0.90;;;23.00;19.10;;;;;;5071434;28;20487;-31
2022/04/17 11:54:41;;;;;;;3.33;1.20;;;23.20;18.30;;;;;;5072031;28;20419;-32
2022/04/17 11:57:08;;;;;;;3.90;1.60;;;23.30;18.90;;;;;;5072212;28;20435;-31
2022/04/17 11:59:54;;;;;;;2.00;1.30;;;23.30;18.80;;;;;;5071945;28;20664;-31
2022/04/17 12:02:24;;;;;;;1.70;0.90;;;23.20;18.00;;;;;;5071636;28;20407;-31
2022/04/17 12:04:52;;;;;;;2.23;1.40;;;22.90;17.80;;;;;;5053708;28;20968;-32
2022/04/17 12:07:22;;;;;;;1.90;1.03;;;22.50;17.90;;;;;;5071670;28;20540;-32
2022/04/17 12:09:48;;;;;;;2.00;1.03;;;22.30;18.60;;;;;;5071670;28;20399;-31
2022/04/17 12:12:16;;;;;;;3.95;1.85;;;22.10;19.00;;;;;;5071309;28;20900;-32
2022/04/17 12:14:42;;;;;;;2.13;1.35;;;22.00;18.90;;;;;;5071698;28;20223;-32
2022/04/17 12:17:08;;;;;;;2.20;1.33;;;22.10;18.60;;;;;;5071450;28;20216;-31
2022/04/17 12:19:34;;;;;;;2.13;1.17;;;22.30;19.40;;;;;;5071576;28;20707;-31
2022/04/17 12:22:14;;;;;;;2.70;1.30;;;22.40;19.40;;;;;;5071409;28;20446;-31
2022/04/17 12:24:46;;;;;;;1.95;1.13;;;22.60;18.70;;;;;;5071284;28;20972;-31
2022/04/17 12:27:19;;;;;;;1.92;1.25;;;22.50;17.80;;;;;;5071481;28;20688;-31
2022/04/17 12:29:58;;;;;;;4.35;1.30;;;22.30;18.10;;;;;;5071833;28;20153;-30
2022/04/17 12:32:28;;;;;;;1.90;0.93;;;22.10;19.10;;;;;;5071405;28;20172;-32
2022/04/17 12:34:59;;;;;;;2.83;1.70;;;22.10;19.40;;;;;;5071204;28;20445;-32
2022/04/17 12:37:30;;;;;;;2.90;1.60;;;22.20;19.10;;;;;;5071350;28;20923;-30
2022/04/17 12:40:20;;;;;;;2.00;1.20;;;22.20;18.70;;;;;;5071549;28;20450;-31
2022/04/17 12:42:47;;;;;;;12.63;1.83;;;22.00;18.90;;;;;;5071480;28;20779;-31
2022/04/17 12:45:26;;;;;;;1.95;1.02;;;21.70;19.20;;;;;;5071040;28;20462;-32
2022/04/17 12:48:01;;;;;;;2.05;1.30;;;21.80;19.70;;;;;;5071386;28;20169;-31
2022/04/17 12:50:26;;;;;;;2.77;1.23;;;22.00;18.50;;;;;;5071464;28;20196;-32
2022/04/17 12:52:56;;;;;;;2.07;1.37;;;22.00;17.00;;;;;;5071183;28;20450;-31
2022/04/17 12:55:32;;;;;;;3.27;1.23;;;22.20;18.90;;;;;;5071067;28;20200;-32
2022/04/17 12:57:59;;;;;;;3.25;1.67;;;22.40;17.80;;;;;;5071441;28;20506;-32
2022/04/17 13:00:29;;;;;;;2.08;1.20;;;22.50;18.90;;;;;;5071186;28;20635;-31
2022/04/17 13:03:14;;;;;;;5.67;1.13;;;22.40;19.20;;;;;;5071858;28;20244;-31
2022/04/17 13:05:41;;;;;;;3.00;1.80;;;22.30;18.80;;;;;;5074794;28;20568;-32
2022/04/17 13:08:10;;;;;;;4.22;1.92;;;22.00;18.70;;;;;;5075095;28;20218;-32
2022/04/17 13:10:37;;;;;;;3.85;1.20;;;21.90;18.80;;;;;;5074830;28;20169;-31